Time;durP1;ratioP1;P1;durP2;ratioP2;P2;SDS_P1;SDS_P2;PMS_P1;PMS_P2;Temp;Humidity;BMP_temperature;BMP_pressure;BME280_temperature;BME280_humidity;BME280_pressure;Samples;Min_cycle;Max_cycle;Signal;HPM_P1;HPM_P2
2021/01/10 00:02:17;;;;;;;18.20;11.18;;;;;;;;;;5037775;28;20032;-82
2021/01/10 00:05:03;;;;;;;14.50;8.85;;;;;;;;;;5036323;28;20399;-82
2021/01/10 00:07:49;;;;;;;15.13;10.18;;;;;;;;;;5035850;28;20040;-81
2021/01/10 00:10:35;;;;;;;15.15;9.32;;;;;;;;;;5031282;28;20028;-81
2021/01/10 00:13:20;;;;;;;14.70;8.73;;;;;;;;;;5036666;28;20435;-82
2021/01/10 00:16:05;;;;;;;15.35;9.43;;;;;;;;;;5029903;28;20129;-82
2021/01/10 00:18:50;;;;;;;14.10;8.65;;;;;;;;;;5033862;28;20095;-83
2021/01/10 00:21:36;;;;;;;14.82;9.73;;;;;;;;;;5034825;28;20175;-82
2021/01/10 00:24:21;;;;;;;16.45;9.32;;;;;;;;;;5032689;28;20096;-81
2021/01/10 00:27:16;;;;;;;16.58;10.43;;;;;;;;;;5030417;28;20468;-81
2021/01/10 00:30:03;;;;;;;15.98;9.35;;;;;;;;;;5031244;28;20029;-82
2021/01/10 00:32:52;;;;;;;15.98;9.60;;;;;;;;;;5031933;28;20112;-82
2021/01/10 00:35:37;;;;;;;17.23;11.00;;;;;;;;;;5033594;28;20033;-81
2021/01/10 00:38:23;;;;;;;18.27;10.60;;;;;;;;;;5041095;28;20592;-81
2021/01/10 00:41:08;;;;;;;15.13;9.35;;;;;;;;;;5037660;28;20371;-81
2021/01/10 00:43:53;;;;;;;15.75;9.10;;;;;;;;;;5037170;28;20056;-81
2021/01/10 00:46:38;;;;;;;16.00;9.27;;;;;;;;;;5037432;28;20021;-81
2021/01/10 00:49:23;;;;;;;15.13;9.18;;;;;;;;;;5036414;28;20025;-83
2021/01/10 00:52:09;;;;;;;15.32;9.55;;;;;;;;;;5034954;28;20487;-81
2021/01/10 00:54:54;;;;;;;17.70;9.40;;;;;;;;;;5044177;28;20542;-81
2021/01/10 00:57:39;;;;;;;15.73;9.18;;;;;;;;;;5038615;28;20107;-81
2021/01/10 01:00:24;;;;;;;16.23;9.07;;;;;;;;;;5040520;28;20329;-81
2021/01/10 01:03:10;;;;;;;20.27;11.13;;;;;;;;;;5036142;28;20048;-81
2021/01/10 01:05:55;;;;;;;15.98;10.23;;;;;;;;;;5043827;28;20023;-82
2021/01/10 01:08:43;;;;;;;18.25;11.70;;;;;;;;;;5030186;28;20570;-82
2021/01/10 01:11:29;;;;;;;22.02;13.48;;;;;;;;;;5042863;28;20014;-81
2021/01/10 01:14:15;;;;;;;21.50;13.20;;;;;;;;;;5034700;28;20633;-84
2021/01/10 01:17:00;;;;;;;22.30;12.52;;;;;;;;;;5036514;28;20506;-81
2021/01/10 01:19:46;;;;;;;22.92;14.95;;;;;;;;;;5037701;28;20447;-81
2021/01/10 01:22:31;;;;;;;27.95;15.93;;;;;;;;;;5037016;28;20032;-81
2021/01/10 01:25:19;;;;;;;26.70;16.48;;;;;;;;;;5036745;28;20029;-81
2021/01/10 01:28:08;;;;;;;24.50;15.93;;;;;;;;;;5043265;28;20277;-82
2021/01/10 01:30:54;;;;;;;26.92;17.10;;;;;;;;;;5032212;28;20671;-81
2021/01/10 01:33:39;;;;;;;26.73;16.85;;;;;;;;;;5032293;28;20021;-82
2021/01/10 01:36:27;;;;;;;23.42;15.13;;;;;;;;;;5042658;28;20059;-81
2021/01/10 01:39:12;;;;;;;27.33;17.10;;;;;;;;;;5029640;28;20029;-81
2021/01/10 01:41:57;;;;;;;29.70;17.05;;;;;;;;;;5031259;28;20124;-81
2021/01/10 01:44:44;;;;;;;26.50;17.20;;;;;;;;;;5032014;28;20859;-80
2021/01/10 01:47:29;;;;;;;28.02;16.33;;;;;;;;;;5035978;28;20025;-81
2021/01/10 01:50:14;;;;;;;26.80;15.98;;;;;;;;;;5039574;28;20025;-81
2021/01/10 01:53:00;;;;;;;26.10;16.58;;;;;;;;;;5034474;28;20029;-81
2021/01/10 01:55:45;;;;;;;26.08;15.82;;;;;;;;;;5033179;28;20055;-81
2021/01/10 01:58:31;;;;;;;28.08;16.45;;;;;;;;;;5039059;28;20120;-82
2021/01/10 02:01:16;;;;;;;23.33;15.10;;;;;;;;;;5030925;28;20040;-82
2021/01/10 02:04:14;;;;;;;25.27;16.08;;;;;;;;;;5036859;28;20021;-82
2021/01/10 02:07:04;;;;;;;26.02;16.95;;;;;;;;;;5038179;28;20439;-81
2021/01/10 02:09:55;;;;;;;30.75;16.35;;;;;;;;;;5029241;28;20487;-81
2021/01/10 02:12:44;;;;;;;23.85;15.07;;;;;;;;;;5036550;28;20047;-81
2021/01/10 02:15:30;;;;;;;;;;;;;;;;;;5031918;28;20021;-81
2021/01/10 02:18:16;;;;;;;26.98;16.73;;;;;;;;;;5038598;28;19909;-81
2021/01/10 02:21:02;;;;;;;22.20;15.02;;;;;;;;;;5035798;28;20033;-81
2021/01/10 02:23:47;;;;;;;25.83;16.45;;;;;;;;;;5034129;28;20602;-81
2021/01/10 02:26:33;;;;;;;23.60;14.77;;;;;;;;;;5034202;28;20024;-81
2021/01/10 02:29:19;;;;;;;24.23;16.30;;;;;;;;;;5032378;28;20032;-81
2021/01/10 02:32:04;;;;;;;23.30;15.35;;;;;;;;;;5033513;28;20035;-82
2021/01/10 02:34:50;;;;;;;25.92;16.38;;;;;;;;;;5036882;28;20380;-82
2021/01/10 02:37:55;;;;;;;23.33;14.48;;;;;;;;;;5034540;28;20483;-81
2021/01/10 02:40:45;;;;;;;27.58;16.75;;;;;;;;;;5054681;28;20063;-81
2021/01/10 02:43:33;;;;;;;22.15;14.52;;;;;;;;;;5036854;28;20028;-81
2021/01/10 02:46:18;;;;;;;22.70;14.68;;;;;;;;;;5034595;28;20146;-81
2021/01/10 02:49:03;;;;;;;27.40;16.38;;;;;;;;;;5034465;28;20022;-81
2021/01/10 02:51:49;;;;;;;26.13;17.27;;;;;;;;;;5037239;28;20175;-81
2021/01/10 02:54:34;;;;;;;26.55;15.88;;;;;;;;;;5028771;28;20017;-81
2021/01/10 02:57:22;;;;;;;25.80;15.18;;;;;;;;;;5020891;28;20049;-80
2021/01/10 03:00:08;;;;;;;23.15;15.20;;;;;;;;;;5032128;28;20108;-81
2021/01/10 03:02:54;;;;;;;27.38;15.75;;;;;;;;;;5022883;28;20025;-81
2021/01/10 03:05:39;;;;;;;22.10;13.60;;;;;;;;;;5040071;28;20041;-81
2021/01/10 03:08:25;;;;;;;24.63;14.80;;;;;;;;;;5033327;28;20033;-81
2021/01/10 03:11:10;;;;;;;24.25;15.00;;;;;;;;;;5038805;28;20025;-81
2021/01/10 03:13:55;;;;;;;24.02;15.27;;;;;;;;;;5029220;28;20036;-81
2021/01/10 03:16:42;;;;;;;24.38;15.27;;;;;;;;;;5030885;28;20116;-81
2021/01/10 03:19:27;;;;;;;23.80;15.13;;;;;;;;;;5031137;28;20124;-81
2021/01/10 03:22:12;;;;;;;24.25;15.85;;;;;;;;;;5033924;28;20029;-81
2021/01/10 03:24:57;;;;;;;22.58;15.57;;;;;;;;;;5032092;28;20037;-81
2021/01/10 03:27:43;;;;;;;22.00;13.98;;;;;;;;;;5035093;28;20022;-83
2021/01/10 03:30:28;;;;;;;23.77;14.45;;;;;;;;;;5033272;28;20028;-80
2021/01/10 03:33:13;;;;;;;24.23;14.40;;;;;;;;;;5034702;28;20079;-80
2021/01/10 03:36:00;;;;;;;20.65;13.27;;;;;;;;;;5033598;28;20395;-80
2021/01/10 03:38:45;;;;;;;22.92;13.68;;;;;;;;;;5033108;28;20475;-80
2021/01/10 03:41:30;;;;;;;19.90;12.75;;;;;;;;;;5032370;28;20021;-80
2021/01/10 03:44:15;;;;;;;20.92;12.88;;;;;;;;;;5030279;28;20052;-83
2021/01/10 03:47:01;;;;;;;22.40;13.27;;;;;;;;;;5031070;28;20049;-81
2021/01/10 03:49:46;;;;;;;22.23;14.02;;;;;;;;;;5035265;28;20021;-81
2021/01/10 03:52:31;;;;;;;18.35;12.57;;;;;;;;;;5035471;28;20032;-80
2021/01/10 03:55:16;;;;;;;20.25;13.18;;;;;;;;;;5020227;28;20369;-81
2021/01/10 03:58:02;;;;;;;18.75;11.52;;;;;;;;;;5034175;28;20104;-82
2021/01/10 04:00:47;;;;;;;17.75;11.35;;;;;;;;;;5029815;28;20086;-82
2021/01/10 04:03:32;;;;;;;22.60;13.05;;;;;;;;;;5037739;28;20426;-82
2021/01/10 04:06:17;;;;;;;18.10;11.48;;;;;;;;;;5034842;28;20488;-82
2021/01/10 04:09:03;;;;;;;20.15;12.60;;;;;;;;;;5021769;28;20512;-82
2021/01/10 04:11:48;;;;;;;19.00;11.65;;;;;;;;;;5042040;28;20026;-82
2021/01/10 04:14:33;;;;;;;21.08;12.35;;;;;;;;;;5044008;28;20056;-82
2021/01/10 04:17:18;;;;;;;19.98;12.02;;;;;;;;;;5048493;28;20021;-82
2021/01/10 04:20:04;;;;;;;17.98;12.07;;;;;;;;;;5040636;28;20029;-82
2021/01/10 04:22:49;;;;;;;21.13;12.70;;;;;;;;;;5040348;28;20021;-81
2021/01/10 04:25:34;;;;;;;19.13;12.10;;;;;;;;;;5036773;28;20483;-81
2021/01/10 04:28:19;;;;;;;19.58;12.35;;;;;;;;;;5035591;28;20018;-81
2021/01/10 04:31:05;;;;;;;18.58;11.65;;;;;;;;;;5039991;28;20021;-81
2021/01/10 04:33:50;;;;;;;18.60;11.63;;;;;;;;;;5040272;28;20106;-81
2021/01/10 04:36:35;;;;;;;18.75;11.70;;;;;;;;;;5035561;28;20080;-81
2021/01/10 04:39:20;;;;;;;17.65;11.25;;;;;;;;;;5039337;28;20091;-81
2021/01/10 04:42:06;;;;;;;18.45;10.50;;;;;;;;;;5033830;28;20035;-81
2021/01/10 04:44:51;;;;;;;18.48;11.98;;;;;;;;;;5039246;28;20490;-81
2021/01/10 04:47:36;;;;;;;17.75;11.18;;;;;;;;;;5043556;28;20899;-81
2021/01/10 04:50:22;;;;;;;17.10;11.52;;;;;;;;;;5037986;28;20506;-81
2021/01/10 04:53:08;;;;;;;19.13;11.52;;;;;;;;;;5035329;28;20462;-82
2021/01/10 04:55:57;;;;;;;17.40;10.43;;;;;;;;;;5028234;28;20107;-81
2021/01/10 04:58:43;;;;;;;20.58;11.75;;;;;;;;;;5039190;28;20570;-81
2021/01/10 05:01:36;;;;;;;20.58;11.40;;;;;;;;;;5037006;28;20092;-81
2021/01/10 05:04:22;;;;;;;17.40;10.63;;;;;;;;;;5038752;28;20072;-81
2021/01/10 05:07:07;;;;;;;19.63;11.57;;;;;;;;;;5040715;28;20025;-81
2021/01/10 05:09:52;;;;;;;17.48;10.40;;;;;;;;;;5037413;28;20025;-81
2021/01/10 05:12:38;;;;;;;16.98;10.32;;;;;;;;;;5041256;28;20049;-81
2021/01/10 05:15:23;;;;;;;17.48;10.82;;;;;;;;;;5024853;28;20427;-81
2021/01/10 05:18:08;;;;;;;16.20;10.68;;;;;;;;;;5040963;28;20068;-80
2021/01/10 05:20:55;;;;;;;21.17;12.55;;;;;;;;;;5044069;28;20238;-81
2021/01/10 05:23:40;;;;;;;17.23;9.98;;;;;;;;;;5017806;28;20025;-81
2021/01/10 05:26:32;;;;;;;18.25;10.85;;;;;;;;;;5036048;28;20462;-82
2021/01/10 05:29:19;;;;;;;17.40;11.63;;;;;;;;;;5034206;28;20021;-82
2021/01/10 05:32:04;;;;;;;17.20;10.00;;;;;;;;;;5035945;28;20411;-82
2021/01/10 05:34:59;;;;;;;19.15;12.15;;;;;;;;;;5039916;28;20387;-82
2021/01/10 05:37:53;;;;;;;18.38;11.68;;;;;;;;;;5032996;28;20104;-82
2021/01/10 05:40:38;;;;;;;18.50;10.73;;;;;;;;;;5025629;28;20443;-82
2021/01/10 05:43:24;;;;;;;18.00;11.77;;;;;;;;;;5030597;28;20033;-82
2021/01/10 05:46:16;;;;;;;17.08;10.95;;;;;;;;;;5038563;28;20025;-82
2021/01/10 05:49:01;;;;;;;19.10;11.63;;;;;;;;;;5036618;28;20039;-82
2021/01/10 05:51:47;;;;;;;19.77;12.25;;;;;;;;;;5043249;28;20028;-81
2021/01/10 05:54:34;;;;;;;21.25;14.25;;;;;;;;;;5033079;28;20021;-81
2021/01/10 05:57:26;;;;;;;21.92;12.65;;;;;;;;;;5033863;28;20056;-81
2021/01/10 06:00:12;;;;;;;23.13;13.80;;;;;;;;;;5034149;28;20191;-81
2021/01/10 06:02:59;;;;;;;18.52;11.45;;;;;;;;;;5042959;28;20521;-82
2021/01/10 06:05:54;;;;;;;18.20;11.43;;;;;;;;;;5030250;28;20108;-82
2021/01/10 06:08:40;;;;;;;18.75;11.68;;;;;;;;;;5040070;28;20530;-81
2021/01/10 06:11:26;;;;;;;21.08;12.65;;;;;;;;;;5036726;28;20113;-80
2021/01/10 06:14:18;;;;;;;17.15;11.35;;;;;;;;;;5034865;28;20044;-81
2021/01/10 06:17:03;;;;;;;17.98;12.02;;;;;;;;;;5040585;28;20094;-81
2021/01/10 06:19:49;;;;;;;16.25;9.85;;;;;;;;;;5035551;28;20312;-81
2021/01/10 06:22:37;;;;;;;18.98;11.20;;;;;;;;;;5031754;28;20033;-81
2021/01/10 06:25:24;;;;;;;18.77;10.57;;;;;;;;;;5032117;28;20364;-81
2021/01/10 06:28:13;;;;;;;18.27;11.95;;;;;;;;;;5038393;28;20037;-81
2021/01/10 06:31:01;;;;;;;19.58;12.57;;;;;;;;;;5030511;28;20032;-81
2021/01/10 06:33:47;;;;;;;17.90;11.45;;;;;;;;;;5038362;28;20479;-83
2021/01/10 06:36:33;;;;;;;17.52;11.15;;;;;;;;;;5031104;28;20029;-82
2021/01/10 06:39:24;;;;;;;19.80;11.50;;;;;;;;;;5033708;28;20550;-80
2021/01/10 06:42:11;;;;;;;17.55;11.07;;;;;;;;;;5034257;28;20127;-82
2021/01/10 06:44:58;;;;;;;15.52;9.75;;;;;;;;;;5039521;28;20021;-82
2021/01/10 06:47:43;;;;;;;16.50;10.10;;;;;;;;;;5034257;28;20145;-82
2021/01/10 06:50:29;;;;;;;17.88;11.23;;;;;;;;;;5039495;28;20020;-82
2021/01/10 06:53:15;;;;;;;16.50;11.60;;;;;;;;;;5038540;28;20021;-82
2021/01/10 06:56:00;;;;;;;17.58;10.70;;;;;;;;;;5035499;28;20671;-82
2021/01/10 06:59:00;;;;;;;16.58;9.95;;;;;;;;;;5017490;28;20317;-81
2021/01/10 07:01:49;;;;;;;19.98;12.60;;;;;;;;;;5032294;28;20016;-82
2021/01/10 07:04:37;;;;;;;18.98;11.50;;;;;;;;;;5036648;28;20037;-82
2021/01/10 07:07:32;;;;;;;19.75;11.55;;;;;;;;;;5036061;28;20024;-82
2021/01/10 07:10:24;;;;;;;21.83;10.63;;;;;;;;;;5037941;28;20565;-81
2021/01/10 07:13:27;;;;;;;22.98;13.00;;;;;;;;;;5027959;28;20021;-82
2021/01/10 07:16:17;;;;;;;18.85;11.00;;;;;;;;;;5038881;28;20394;-81
2021/01/10 07:19:03;;;;;;;;;;;;;;;;;;5031805;28;20038;-82
2021/01/10 07:21:49;;;;;;;19.50;12.10;;;;;;;;;;5027452;28;20534;-82
2021/01/10 07:24:34;;;;;;;20.13;11.90;;;;;;;;;;5039675;28;20059;-82
2021/01/10 07:27:26;;;;;;;19.23;12.98;;;;;;;;;;5029733;28;20473;-82
2021/01/10 07:30:20;;;;;;;20.48;12.48;;;;;;;;;;5040305;28;20032;-82
2021/01/10 07:33:22;;;;;;;19.92;11.27;;;;;;;;;;5037550;28;20055;-82
2021/01/10 07:36:07;;;;;;;18.58;11.68;;;;;;;;;;5035252;28;20048;-82
2021/01/10 07:38:52;;;;;;;17.55;11.63;;;;;;;;;;5032600;28;20037;-82
2021/01/10 07:41:38;;;;;;;17.80;12.13;;;;;;;;;;5041605;28;20024;-83
2021/01/10 07:44:43;;;;;;;18.67;10.48;;;;;;;;;;5031010;28;20029;-82
2021/01/10 07:47:31;;;;;;;19.85;12.18;;;;;;;;;;5031519;28;20083;-82
2021/01/10 07:50:16;;;;;;;19.40;12.35;;;;;;;;;;5033995;28;20044;-81
2021/01/10 07:53:01;;;;;;;17.98;11.38;;;;;;;;;;5031990;28;20637;-80
2021/01/10 07:55:46;;;;;;;18.45;11.27;;;;;;;;;;5036633;28;20041;-81
2021/01/10 07:58:32;;;;;;;18.83;11.32;;;;;;;;;;5032288;28;20400;-81
2021/01/10 08:01:17;;;;;;;18.92;11.85;;;;;;;;;;5025580;28;20083;-81
2021/01/10 08:04:09;;;;;;;20.55;11.77;;;;;;;;;;5041695;28;20104;-80
2021/01/10 08:06:57;;;;;;;16.83;11.00;;;;;;;;;;5037455;28;20032;-80
2021/01/10 08:09:44;;;;;;;19.42;11.48;;;;;;;;;;5027932;28;20021;-80
2021/01/10 08:12:32;;;;;;;17.70;11.45;;;;;;;;;;5039728;28;20622;-81
2021/01/10 08:15:18;;;;;;;19.25;11.77;;;;;;;;;;5031288;28;20032;-81
2021/01/10 08:18:03;;;;;;;36.85;23.17;;;;;;;;;;5033247;28;20099;-83
2021/01/10 08:20:52;;;;;;;25.23;15.05;;;;;;;;;;5031644;28;20053;-80
2021/01/10 08:23:37;;;;;;;18.65;11.98;;;;;;;;;;5032986;28;20072;-80
2021/01/10 08:26:23;;;;;;;18.20;10.95;;;;;;;;;;5031663;28;20384;-81
2021/01/10 08:29:08;;;;;;;18.95;11.85;;;;;;;;;;5021000;28;20025;-79
2021/01/10 08:31:54;;;;;;;18.70;12.05;;;;;;;;;;5031081;28;20030;-80
2021/01/10 08:34:49;;;;;;;19.10;12.13;;;;;;;;;;5028490;28;20095;-80
2021/01/10 08:37:34;;;;;;;18.52;11.57;;;;;;;;;;5032867;28;20029;-80
2021/01/10 08:40:20;;;;;;;19.70;12.05;;;;;;;;;;5032655;28;20517;-80
2021/01/10 08:43:05;;;;;;;17.85;11.82;;;;;;;;;;5034775;28;20025;-80
2021/01/10 08:45:50;;;;;;;28.08;18.25;;;;;;;;;;5030620;28;20124;-79
2021/01/10 08:48:36;;;;;;;36.50;21.73;;;;;;;;;;5031750;28;20167;-84
2021/01/10 08:51:27;;;;;;;18.27;11.65;;;;;;;;;;5029021;28;20025;-82
2021/01/10 08:54:13;;;;;;;16.25;10.07;;;;;;;;;;5034474;28;20720;-81
2021/01/10 08:56:58;;;;;;;22.65;14.52;;;;;;;;;;5030818;28;20369;-81
2021/01/10 08:59:45;;;;;;;19.08;12.90;;;;;;;;;;5041143;28;20037;-82
2021/01/10 09:02:30;;;;;;;18.13;11.82;;;;;;;;;;5040194;28;20029;-81
2021/01/10 09:05:25;;;;;;;20.65;11.85;;;;;;;;;;5043928;28;20212;-84
2021/01/10 09:08:21;;;;;;;18.55;12.32;;;;;;;;;;5034473;28;20047;-81
2021/01/10 09:11:09;;;;;;;17.58;11.57;;;;;;;;;;5033617;28;20021;-82
2021/01/10 09:13:57;;;;;;;17.77;11.45;;;;;;;;;;5030822;28;20021;-83
2021/01/10 09:16:42;;;;;;;16.67;10.63;;;;;;;;;;5038004;28;20025;-82
2021/01/10 09:19:29;;;;;;;18.35;11.40;;;;;;;;;;5041437;28;20017;-82
2021/01/10 09:22:14;;;;;;;17.27;11.10;;;;;;;;;;5036571;28;20108;-81
2021/01/10 09:25:07;;;;;;;17.10;11.25;;;;;;;;;;5027448;28;20060;-82
2021/01/10 09:28:05;;;;;;;15.85;10.75;;;;;;;;;;5032770;28;20025;-82
2021/01/10 09:30:53;;;;;;;16.75;9.82;;;;;;;;;;5032461;28;20027;-82
2021/01/10 09:33:38;;;;;;;17.23;10.73;;;;;;;;;;5034492;28;20107;-82
2021/01/10 09:36:23;;;;;;;15.18;9.88;;;;;;;;;;5035013;28;20043;-82
2021/01/10 09:39:08;;;;;;;17.08;10.43;;;;;;;;;;5034292;28;20033;-83
2021/01/10 09:41:54;;;;;;;15.77;10.23;;;;;;;;;;5031641;28;20040;-82
2021/01/10 09:44:39;;;;;;;17.58;10.35;;;;;;;;;;5035819;28;20391;-82
2021/01/10 09:47:32;;;;;;;14.95;9.73;;;;;;;;;;5041867;28;20387;-82
2021/01/10 09:50:17;;;;;;;16.58;9.75;;;;;;;;;;5040941;28;20376;-82
2021/01/10 09:53:02;;;;;;;15.27;10.15;;;;;;;;;;5034576;28;20029;-81
2021/01/10 09:55:47;;;;;;;86.22;53.05;;;;;;;;;;5044582;28;20043;-82
2021/01/10 09:58:33;;;;;;;22.63;14.88;;;;;;;;;;5034877;28;20639;-81
2021/01/10 10:01:19;;;;;;;19.05;11.98;;;;;;;;;;5038188;28;20025;-82
2021/01/10 10:04:04;;;;;;;16.95;11.43;;;;;;;;;;5034077;28;20057;-81
2021/01/10 10:06:50;;;;;;;16.85;11.30;;;;;;;;;;5033664;28;20033;-81
2021/01/10 10:09:49;;;;;;;15.95;11.18;;;;;;;;;;5035367;28;20031;-82
2021/01/10 10:12:35;;;;;;;18.90;11.13;;;;;;;;;;5041250;28;20041;-81
2021/01/10 10:15:34;;;;;;;15.27;10.30;;;;;;;;;;5032064;28;20498;-84
2021/01/10 10:18:24;;;;;;;18.40;11.23;;;;;;;;;;5021531;28;20017;-82
2021/01/10 10:21:09;;;;;;;17.15;11.63;;;;;;;;;;5037726;28;20117;-83
2021/01/10 10:23:54;;;;;;;17.08;11.10;;;;;;;;;;5036682;28;20044;-82
2021/01/10 10:26:43;;;;;;;17.45;11.52;;;;;;;;;;5037811;28;20024;-82
2021/01/10 10:29:28;;;;;;;17.90;12.20;;;;;;;;;;5034952;28;20559;-83
2021/01/10 10:32:19;;;;;;;19.33;11.73;;;;;;;;;;5036305;28;20029;-86
2021/01/10 10:35:05;;;;;;;17.98;10.65;;;;;;;;;;5037061;28;20030;-84
2021/01/10 10:37:51;;;;;;;16.02;10.23;;;;;;;;;;5035168;28;20025;-85
2021/01/10 10:40:36;;;;;;;15.88;10.90;;;;;;;;;;5032584;28;20029;-87
2021/01/10 10:43:21;;;;;;;17.15;10.40;;;;;;;;;;5041851;28;20108;-79
2021/01/10 10:46:06;;;;;;;19.10;11.95;;;;;;;;;;5033725;28;20032;-77
2021/01/10 10:48:51;;;;;;;16.60;11.15;;;;;;;;;;5038758;28;20710;-85
2021/01/10 10:51:37;;;;;;;15.85;10.15;;;;;;;;;;5019410;28;20049;-83
2021/01/10 10:54:22;;;;;;;23.50;14.25;;;;;;;;;;5037741;28;20361;-83
2021/01/10 10:57:08;;;;;;;19.50;12.38;;;;;;;;;;5037502;28;20049;-83
2021/01/10 10:59:53;;;;;;;18.23;10.38;;;;;;;;;;5036276;28;20052;-83
2021/01/10 11:02:39;;;;;;;15.55;10.75;;;;;;;;;;5032761;28;20028;-84
2021/01/10 11:05:25;;;;;;;16.08;10.52;;;;;;;;;;5034621;28;20109;-84
2021/01/10 11:08:10;;;;;;;17.85;10.95;;;;;;;;;;5034427;28;20071;-84
2021/01/10 11:10:55;;;;;;;16.85;11.10;;;;;;;;;;5032631;28;20064;-84
2021/01/10 11:13:41;;;;;;;15.20;10.32;;;;;;;;;;5034664;28;20028;-84
2021/01/10 11:16:33;;;;;;;15.63;11.07;;;;;;;;;;5027391;28;20024;-84
2021/01/10 11:19:18;;;;;;;15.55;12.02;;;;;;;;;;5034524;28;20035;-83
2021/01/10 11:22:04;;;;;;;16.08;11.52;;;;;;;;;;5034525;28;20507;-84
2021/01/10 11:24:50;;;;;;;14.63;11.73;;;;;;;;;;5031315;28;20034;-84
2021/01/10 11:27:35;;;;;;;13.90;8.73;;;;;;;;;;5032361;28;20049;-84
2021/01/10 11:30:20;;;;;;;15.25;9.32;;;;;;;;;;5033645;28;20021;-84
2021/01/10 11:33:06;;;;;;;13.68;11.57;;;;;;;;;;5036538;28;20072;-84
2021/01/10 11:35:51;;;;;;;15.48;10.35;;;;;;;;;;5042172;28;20041;-84
2021/01/10 11:38:37;;;;;;;15.43;10.48;;;;;;;;;;5035715;28;20132;-84
2021/01/10 11:41:22;;;;;;;17.60;15.70;;;;;;;;;;5036294;28;20018;-84
2021/01/10 11:44:08;;;;;;;13.88;11.40;;;;;;;;;;5031175;28;20084;-84
2021/01/10 11:46:53;;;;;;;16.50;14.80;;;;;;;;;;5041063;28;20032;-84
2021/01/10 11:49:39;;;;;;;16.67;14.32;;;;;;;;;;5033747;28;20028;-84
2021/01/10 11:52:24;;;;;;;17.77;13.20;;;;;;;;;;5030538;28;20771;-84
2021/01/10 11:55:10;;;;;;;15.18;9.90;;;;;;;;;;5042308;28;20029;-85
2021/01/10 11:57:55;;;;;;;15.25;11.05;;;;;;;;;;5036912;28;20376;-84
2021/01/10 12:00:40;;;;;;;13.90;9.52;;;;;;;;;;5038430;28;20038;-84
2021/01/10 12:03:26;;;;;;;13.50;8.80;;;;;;;;;;5036526;28;20029;-85
2021/01/10 12:06:17;;;;;;;13.13;8.85;;;;;;;;;;5034526;28;20091;-85
2021/01/10 12:09:10;;;;;;;12.93;8.52;;;;;;;;;;5035416;28;20025;-85
2021/01/10 12:11:56;;;;;;;11.60;8.10;;;;;;;;;;5041522;28;20388;-83
2021/01/10 12:14:41;;;;;;;13.05;9.25;;;;;;;;;;5033669;28;20039;-83
2021/01/10 12:17:27;;;;;;;13.02;8.57;;;;;;;;;;5034064;28;20068;-84
2021/01/10 12:20:12;;;;;;;51.88;37.75;;;;;;;;;;5026384;28;20036;-85
2021/01/10 12:22:58;;;;;;;14.75;9.77;;;;;;;;;;5037591;28;20031;-83
2021/01/10 12:25:44;;;;;;;13.25;8.77;;;;;;;;;;5030073;28;20088;-84
2021/01/10 12:28:29;;;;;;;16.10;9.15;;;;;;;;;;5034551;28;20131;-84
2021/01/10 12:31:16;;;;;;;12.93;8.50;;;;;;;;;;5038636;28;20038;-85
2021/01/10 12:34:01;;;;;;;12.43;7.90;;;;;;;;;;5036962;28;20047;-85
2021/01/10 12:36:47;;;;;;;10.85;7.07;;;;;;;;;;5039951;28;20026;-87
2021/01/10 12:39:32;;;;;;;10.65;6.60;;;;;;;;;;5033587;28;20036;-86
2021/01/10 12:42:17;;;;;;;12.73;7.55;;;;;;;;;;5034515;28;20024;-86
2021/01/10 12:45:04;;;;;;;12.27;7.55;;;;;;;;;;5036339;28;20451;-84
2021/01/10 12:47:49;;;;;;;11.57;6.78;;;;;;;;;;5040844;28;20079;-84
2021/01/10 12:50:34;;;;;;;11.30;6.82;;;;;;;;;;5032668;28;20488;-84
2021/01/10 12:53:19;;;;;;;12.43;7.80;;;;;;;;;;5043388;28;20281;-84
2021/01/10 12:56:05;;;;;;;13.60;7.45;;;;;;;;;;5039219;28;20049;-82
2021/01/10 12:58:52;;;;;;;10.13;6.85;;;;;;;;;;5038627;28;20067;-81
2021/01/10 13:01:38;;;;;;;11.02;6.65;;;;;;;;;;5034321;28;20026;-82
2021/01/10 13:04:23;;;;;;;12.73;6.68;;;;;;;;;;5040239;28;20098;-82
2021/01/10 13:07:08;;;;;;;10.80;6.57;;;;;;;;;;5038494;28;20085;-82
2021/01/10 13:09:53;;;;;;;11.73;6.88;;;;;;;;;;5038359;28;20025;-80
2021/01/10 13:12:39;;;;;;;19.50;12.55;;;;;;;;;;5042188;28;20032;-81
2021/01/10 13:15:24;;;;;;;18.20;11.73;;;;;;;;;;5033469;28;20068;-80
2021/01/10 13:18:09;;;;;;;12.20;7.32;;;;;;;;;;5041231;28;20099;-81
2021/01/10 13:20:54;;;;;;;11.57;7.15;;;;;;;;;;5037764;28;20036;-80
2021/01/10 13:23:43;;;;;;;13.57;6.47;;;;;;;;;;5038368;28;20071;-80
2021/01/10 13:26:29;;;;;;;11.73;7.28;;;;;;;;;;5036503;28;20036;-81
2021/01/10 13:29:14;;;;;;;11.10;6.63;;;;;;;;;;5043571;28;20068;-80
2021/01/10 13:32:01;;;;;;;10.88;6.72;;;;;;;;;;5036571;28;20026;-76
2021/01/10 13:34:46;;;;;;;13.18;6.80;;;;;;;;;;5038851;28;20116;-77
2021/01/10 13:37:32;;;;;;;14.73;8.15;;;;;;;;;;5030569;28;20033;-80
2021/01/10 13:40:17;;;;;;;16.83;9.23;;;;;;;;;;5040373;28;20440;-81
2021/01/10 13:43:02;;;;;;;10.30;6.63;;;;;;;;;;5041175;28;20030;-80
2021/01/10 13:45:48;;;;;;;11.02;7.28;;;;;;;;;;5025534;28;20040;-81
2021/01/10 13:48:33;;;;;;;11.57;6.50;;;;;;;;;;5041229;28;20029;-82
2021/01/10 13:51:20;;;;;;;11.45;7.03;;;;;;;;;;5042100;28;20027;-81
2021/01/10 13:54:05;;;;;;;14.93;6.90;;;;;;;;;;5037510;28;20082;-82
2021/01/10 13:56:50;;;;;;;10.85;6.45;;;;;;;;;;5026766;28;20512;-82
2021/01/10 13:59:35;;;;;;;11.02;6.32;;;;;;;;;;5033233;28;20111;-82
2021/01/10 14:02:20;;;;;;;13.07;6.82;;;;;;;;;;5034992;28;20025;-81
2021/01/10 14:05:06;;;;;;;20.20;11.23;;;;;;;;;;5041912;28;20372;-82
2021/01/10 14:07:51;;;;;;;14.80;7.90;;;;;;;;;;5036361;28;20059;-81
2021/01/10 14:10:36;;;;;;;11.50;6.82;;;;;;;;;;5036348;28;20021;-83
2021/01/10 14:13:22;;;;;;;12.07;6.82;;;;;;;;;;5033013;28;20091;-80
2021/01/10 14:16:07;;;;;;;11.57;6.97;;;;;;;;;;5041978;28;20111;-80
2021/01/10 14:18:54;;;;;;;12.27;7.05;;;;;;;;;;5038911;28;20115;-80
2021/01/10 14:21:39;;;;;;;13.13;8.43;;;;;;;;;;5035755;28;20017;-83
2021/01/10 14:24:24;;;;;;;10.38;6.65;;;;;;;;;;5037745;28;20025;-80
2021/01/10 14:27:10;;;;;;;11.20;6.88;;;;;;;;;;5036818;28;20025;-83
2021/01/10 14:29:55;;;;;;;11.15;7.25;;;;;;;;;;5041363;28;20036;-82
2021/01/10 14:32:40;;;;;;;15.02;9.38;;;;;;;;;;5032541;28;20097;-81
2021/01/10 14:35:25;;;;;;;13.98;8.00;;;;;;;;;;5036855;28;20021;-82
2021/01/10 14:38:11;;;;;;;12.23;7.85;;;;;;;;;;5043830;28;20084;-81
2021/01/10 14:40:56;;;;;;;12.07;7.20;;;;;;;;;;5041691;28;20044;-81
2021/01/10 14:43:44;;;;;;;13.90;8.27;;;;;;;;;;5039928;28;20124;-81
2021/01/10 14:46:30;;;;;;;11.80;6.65;;;;;;;;;;5040930;28;20060;-81
2021/01/10 14:49:17;;;;;;;12.55;7.43;;;;;;;;;;5030599;28;20099;-81
2021/01/10 14:52:03;;;;;;;10.52;6.75;;;;;;;;;;5037643;28;20136;-81
2021/01/10 14:54:48;;;;;;;10.18;6.00;;;;;;;;;;5033329;28;20029;-82
2021/01/10 14:57:33;;;;;;;13.00;7.85;;;;;;;;;;5039079;28;20049;-81
2021/01/10 15:00:19;;;;;;;14.63;7.95;;;;;;;;;;5029950;28;20079;-81
2021/01/10 15:03:04;;;;;;;12.43;7.53;;;;;;;;;;5031560;28;20063;-84
2021/01/10 15:05:49;;;;;;;12.40;8.02;;;;;;;;;;5016834;28;20091;-83
2021/01/10 15:08:35;;;;;;;13.57;7.78;;;;;;;;;;5031565;28;20041;-85
2021/01/10 15:11:22;;;;;;;11.75;7.50;;;;;;;;;;5031749;28;20093;-83
2021/01/10 15:14:09;;;;;;;12.45;7.25;;;;;;;;;;5043840;28;20112;-83
2021/01/10 15:16:55;;;;;;;12.90;8.10;;;;;;;;;;5032417;28;20400;-82
2021/01/10 15:19:40;;;;;;;12.38;7.20;;;;;;;;;;5034656;28;20661;-80
2021/01/10 15:22:25;;;;;;;13.85;7.93;;;;;;;;;;5038231;28;20540;-76
2021/01/10 15:25:11;;;;;;;16.70;7.82;;;;;;;;;;5035304;28;20021;-83
2021/01/10 15:27:56;;;;;;;11.93;7.22;;;;;;;;;;5034206;28;20056;-80
2021/01/10 15:30:41;;;;;;;13.77;7.85;;;;;;;;;;5042217;28;20083;-79
2021/01/10 15:33:27;;;;;;;13.10;7.47;;;;;;;;;;5034988;28;20057;-80
2021/01/10 15:36:16;;;;;;;13.20;7.43;;;;;;;;;;5030411;28;20029;-81
2021/01/10 15:39:01;;;;;;;11.68;7.22;;;;;;;;;;5040440;28;20025;-79
2021/01/10 15:41:47;;;;;;;11.52;7.22;;;;;;;;;;5042253;28;20036;-79
2021/01/10 15:44:32;;;;;;;14.60;7.93;;;;;;;;;;5037108;28;20407;-78
2021/01/10 15:47:17;;;;;;;12.57;7.75;;;;;;;;;;5029389;28;20060;-78
2021/01/10 15:50:04;;;;;;;12.55;7.65;;;;;;;;;;5031768;28;20028;-77
2021/01/10 15:52:49;;;;;;;18.48;10.98;;;;;;;;;;5034667;28;20025;-77
2021/01/10 15:55:34;;;;;;;27.05;17.48;;;;;;;;;;5038217;28;20502;-77
2021/01/10 15:58:19;;;;;;;17.50;10.40;;;;;;;;;;5032124;28;20433;-78
2021/01/10 16:01:04;;;;;;;44.58;23.20;;;;;;;;;;5038179;28;20102;-77
2021/01/10 16:03:50;;;;;;;15.50;9.15;;;;;;;;;;5042249;28;20048;-77
2021/01/10 16:06:41;;;;;;;13.45;8.77;;;;;;;;;;5033587;28;20198;-78
2021/01/10 16:09:27;;;;;;;16.13;9.35;;;;;;;;;;5032453;28;20029;-77
2021/01/10 16:12:12;;;;;;;14.35;8.63;;;;;;;;;;5034093;28;20029;-77
2021/01/10 16:14:57;;;;;;;13.80;8.63;;;;;;;;;;5043127;28;20029;-77